PWSweather.com
Personal Weather Stations
Station Observations
UXOLA
Alcoy, AlcoyES

AlcoyAlcoyES

Lat: 38.70299, Lon: -0.48184

Elevation: 1935

Station Type: PCE FWS-20,

http://www.fiestasalcoy.xyz

High Low Average
Temperature 56.1°F13.4°C 36.1°F2.3°C 48.5°F9.2°C
Dew Point 36.7°F2.6°C 23.2°F-4.9°C 26.9°F-2.8°C
Winds 3.8 mph 6.1 kmh Calm Calm 2.0 mph SSW3.2 kmh SSW
Wind Gusts 5.4 mph8.7 kmh 1.6 mph2.6 kmh 4.0 mph6.4 kmh
Humidity 80% 31% 46%
Pressure 29.82 in1009.8 mb 29.78 in1008.5 mb -
Precipitation 0.00 in0.0 mm - -
Hour Temp Dew Point Humidity Winds Wind Gusts Pressure Precip Precip Rate Daily Precip Total
12:00 AM 42.4°F5.8°C 36.7°F2.6°C 80% 1.6 mph WNW2.6 kmh WNW 2.2 mph3.5 kmh 29.82 in1009.8 mb 0.00 in0.0 mm 0.00 in0.0 mm 0.00 in0.0 mm
12:15 AM 41.9°F5.5°C 36.2°F2.3°C 80% Calm Calm 2.2 mph3.5 kmh 29.81 in1009.5 mb 0.00 in0.0 mm 0.00 in0.0 mm 0.00 in0.0 mm
12:30 AM 41.4°F5.2°C 35.7°F2.1°C 80% 0.7 mph WNW1.1 kmh WNW 3.1 mph5.0 kmh 29.81 in1009.5 mb 0.00 in0.0 mm 0.00 in0.0 mm 0.00 in0.0 mm
12:45 AM 41.0°F5.0°C 35.3°F1.8°C 80% 1.6 mph NW2.6 kmh NW 3.8 mph6.1 kmh 29.80 in1009.1 mb 0.00 in0.0 mm 0.00 in0.0 mm 0.00 in0.0 mm
01:00 AM 40.6°F4.8°C 35.0°F1.7°C 80% 0.7 mph WNW1.1 kmh WNW 3.8 mph6.1 kmh 29.80 in1009.1 mb 0.00 in0.0 mm 0.00 in0.0 mm 0.00 in0.0 mm
01:15 AM 40.5°F4.7°C 34.8°F1.6°C 80% 0.7 mph NNW1.1 kmh NNW 3.8 mph6.1 kmh 29.80 in1009.1 mb 0.00 in0.0 mm 0.00 in0.0 mm 0.00 in0.0 mm
01:30 AM 40.3°F4.6°C 34.6°F1.4°C 80% Calm Calm 2.2 mph3.5 kmh 29.80 in1009.1 mb 0.00 in0.0 mm 0.00 in0.0 mm 0.00 in0.0 mm
01:45 AM 39.9°F4.4°C 34.3°F1.3°C 80% 0.7 mph NW1.1 kmh NW 3.8 mph6.1 kmh 29.80 in1009.1 mb 0.00 in0.0 mm 0.00 in0.0 mm 0.00 in0.0 mm
02:00 AM 39.6°F4.2°C 33.3°F0.7°C 78% 2.2 mph WNW3.5 kmh WNW 4.5 mph7.2 kmh 29.80 in1009.1 mb 0.00 in0.0 mm 0.00 in0.0 mm 0.00 in0.0 mm
02:15 AM 39.6°F4.2°C 33.0°F0.6°C 77% 3.1 mph NNW5.0 kmh NNW 4.5 mph7.2 kmh 29.80 in1009.1 mb 0.00 in0.0 mm 0.00 in0.0 mm 0.00 in0.0 mm
02:30 AM 39.2°F4.0°C 32.0°F0.0°C 75% 1.6 mph WNW2.6 kmh WNW 3.1 mph5.0 kmh 29.79 in1008.8 mb 0.00 in0.0 mm 0.00 in0.0 mm 0.00 in0.0 mm
02:45 AM 38.8°F3.8°C 31.3°F-0.4°C 74% 0.7 mph NNW1.1 kmh NNW 3.1 mph5.0 kmh 29.80 in1009.1 mb 0.00 in0.0 mm 0.00 in0.0 mm 0.00 in0.0 mm
03:00 AM 38.5°F3.6°C 30.6°F-0.8°C 73% 1.6 mph WNW2.6 kmh WNW 3.1 mph5.0 kmh 29.79 in1008.8 mb 0.00 in0.0 mm 0.00 in0.0 mm 0.00 in0.0 mm
03:15 AM 38.5°F3.6°C 29.9°F-1.2°C 71% 0.7 mph NW1.1 kmh NW 3.1 mph5.0 kmh 29.79 in1008.8 mb 0.00 in0.0 mm 0.00 in0.0 mm 0.00 in0.0 mm
03:30 AM 38.1°F3.4°C 29.2°F-1.6°C 70% 0.7 mph NW1.1 kmh NW 1.6 mph2.6 kmh 29.78 in1008.5 mb 0.00 in0.0 mm 0.00 in0.0 mm 0.00 in0.0 mm
03:45 AM 37.9°F3.3°C 28.7°F-1.8°C 69% 0.7 mph W1.1 kmh W 2.2 mph3.5 kmh 29.79 in1008.8 mb 0.00 in0.0 mm 0.00 in0.0 mm 0.00 in0.0 mm
04:00 AM 37.6°F3.1°C 27.6°F-2.4°C 67% 0.7 mph WNW1.1 kmh WNW 2.2 mph3.5 kmh 29.78 in1008.5 mb 0.00 in0.0 mm 0.00 in0.0 mm 0.00 in0.0 mm
04:15 AM 37.6°F3.1°C 27.3°F-2.6°C 66% 0.7 mph NW1.1 kmh NW 1.6 mph2.6 kmh 29.79 in1008.8 mb 0.00 in0.0 mm 0.00 in0.0 mm 0.00 in0.0 mm
04:30 AM 37.2°F2.9°C 26.6°F-3.0°C 65% Calm Calm 3.8 mph6.1 kmh 29.79 in1008.8 mb 0.00 in0.0 mm 0.00 in0.0 mm 0.00 in0.0 mm
04:45 AM 37.2°F2.9°C 26.2°F-3.2°C 64% Calm Calm 2.2 mph3.5 kmh 29.79 in1008.8 mb 0.00 in0.0 mm 0.00 in0.0 mm 0.00 in0.0 mm
05:00 AM 37.0°F2.8°C 25.6°F-3.6°C 63% 0.7 mph NW1.1 kmh NW 1.6 mph2.6 kmh 29.79 in1008.8 mb 0.00 in0.0 mm 0.00 in0.0 mm 0.00 in0.0 mm
05:15 AM 36.7°F2.6°C 25.3°F-3.7°C 63% 0.7 mph NW1.1 kmh NW 1.6 mph2.6 kmh 29.79 in1008.8 mb 0.00 in0.0 mm 0.00 in0.0 mm 0.00 in0.0 mm
05:30 AM 36.9°F2.7°C 25.5°F-3.6°C 63% 0.7 mph NW1.1 kmh NW 2.2 mph3.5 kmh 29.80 in1009.1 mb 0.00 in0.0 mm 0.00 in0.0 mm 0.00 in0.0 mm
05:45 AM 36.9°F2.7°C 25.1°F-3.8°C 62% 0.7 mph NW1.1 kmh NW 2.2 mph3.5 kmh 29.80 in1009.1 mb 0.00 in0.0 mm 0.00 in0.0 mm 0.00 in0.0 mm
06:00 AM 36.7°F2.6°C 24.5°F-4.2°C 61% 0.7 mph WNW1.1 kmh WNW 2.2 mph3.5 kmh 29.80 in1009.1 mb 0.00 in0.0 mm 0.00 in0.0 mm 0.00 in0.0 mm
06:15 AM 36.5°F2.5°C 24.4°F-4.2°C 61% Calm Calm 1.6 mph2.6 kmh 29.80 in1009.1 mb 0.00 in0.0 mm 0.00 in0.0 mm 0.00 in0.0 mm
06:30 AM 36.5°F2.5°C 24.4°F-4.2°C 61% 0.7 mph NW1.1 kmh NW 2.2 mph3.5 kmh 29.80 in1009.1 mb 0.00 in0.0 mm 0.00 in0.0 mm 0.00 in0.0 mm
06:45 AM 36.7°F2.6°C 24.1°F-4.4°C 60% 1.6 mph WNW2.6 kmh WNW 3.1 mph5.0 kmh 29.80 in1009.1 mb 0.00 in0.0 mm 0.00 in0.0 mm 0.00 in0.0 mm
07:00 AM 36.5°F2.5°C 24.0°F-4.4°C 60% 1.6 mph NW2.6 kmh NW 2.2 mph3.5 kmh 29.80 in1009.1 mb 0.00 in0.0 mm 0.00 in0.0 mm 0.00 in0.0 mm
07:15 AM 36.3°F2.4°C 23.8°F-4.6°C 60% 0.7 mph WNW1.1 kmh WNW 1.6 mph2.6 kmh 29.80 in1009.1 mb 0.00 in0.0 mm 0.00 in0.0 mm 0.00 in0.0 mm
07:30 AM 36.3°F2.4°C 23.8°F-4.6°C 60% 0.7 mph NW1.1 kmh NW 1.6 mph2.6 kmh 29.79 in1008.8 mb 0.00 in0.0 mm 0.00 in0.0 mm 0.00 in0.0 mm
07:45 AM 36.3°F2.4°C 23.8°F-4.6°C 60% 0.7 mph NW1.1 kmh NW 3.1 mph5.0 kmh 29.80 in1009.1 mb 0.00 in0.0 mm 0.00 in0.0 mm 0.00 in0.0 mm
08:00 AM 36.1°F2.3°C 23.2°F-4.9°C 59% Calm Calm 1.6 mph2.6 kmh 29.80 in1009.1 mb 0.00 in0.0 mm 0.00 in0.0 mm 0.00 in0.0 mm
08:15 AM 36.3°F2.4°C 23.4°F-4.8°C 59% Calm Calm 2.2 mph3.5 kmh 29.80 in1009.1 mb 0.00 in0.0 mm 0.00 in0.0 mm 0.00 in0.0 mm
08:30 AM 37.2°F2.9°C 23.8°F-4.6°C 58% 2.2 mph NW3.5 kmh NW 3.8 mph6.1 kmh 29.80 in1009.1 mb 0.00 in0.0 mm 0.00 in0.0 mm 0.00 in0.0 mm
08:45 AM 38.3°F3.5°C 24.0°F-4.4°C 56% Calm Calm 3.1 mph5.0 kmh 29.80 in1009.1 mb 0.00 in0.0 mm 0.00 in0.0 mm 0.00 in0.0 mm
09:00 AM 39.0°F3.9°C 24.2°F-4.3°C 55% 1.6 mph WNW2.6 kmh WNW 2.2 mph3.5 kmh 29.80 in1009.1 mb 0.00 in0.0 mm 0.00 in0.0 mm 0.00 in0.0 mm
09:15 AM 40.3°F4.6°C 25.0°F-3.9°C 54% 0.7 mph NW1.1 kmh NW 2.2 mph3.5 kmh 29.80 in1009.1 mb 0.00 in0.0 mm 0.00 in0.0 mm 0.00 in0.0 mm
09:30 AM 43.0°F6.1°C 27.0°F-2.8°C 53% 0.7 mph WNW1.1 kmh WNW 1.6 mph2.6 kmh 29.80 in1009.1 mb 0.00 in0.0 mm 0.00 in0.0 mm 0.00 in0.0 mm
09:45 AM 46.6°F8.1°C 26.4°F-3.1°C 45% Calm Calm 1.6 mph2.6 kmh 29.80 in1009.1 mb 0.00 in0.0 mm 0.00 in0.0 mm 0.00 in0.0 mm
10:00 AM 49.1°F9.5°C 27.0°F-2.8°C 42% 0.7 mph SE1.1 kmh SE 1.6 mph2.6 kmh 29.81 in1009.5 mb 0.00 in0.0 mm 0.00 in0.0 mm 0.00 in0.0 mm
10:15 AM 50.4°F10.2°C 27.0°F-2.8°C 40% 2.2 mph SE3.5 kmh SE 3.8 mph6.1 kmh 29.81 in1009.5 mb 0.00 in0.0 mm 0.00 in0.0 mm 0.00 in0.0 mm
10:30 AM 51.3°F10.7°C 28.4°F-2.0°C 41% 2.2 mph SE3.5 kmh SE 4.5 mph7.2 kmh 29.81 in1009.5 mb 0.00 in0.0 mm 0.00 in0.0 mm 0.00 in0.0 mm
10:45 AM 52.3°F11.3°C 27.5°F-2.5°C 38% 2.2 mph SE3.5 kmh SE 3.8 mph6.1 kmh 29.81 in1009.5 mb 0.00 in0.0 mm 0.00 in0.0 mm 0.00 in0.0 mm
11:00 AM 53.6°F12.0°C 25.2°F-3.8°C 33% 3.1 mph SE5.0 kmh SE 3.8 mph6.1 kmh 29.81 in1009.5 mb 0.00 in0.0 mm 0.00 in0.0 mm 0.00 in0.0 mm
11:15 AM 54.7°F12.6°C 24.7°F-4.1°C 31% 1.6 mph SE2.6 kmh SE 5.4 mph8.7 kmh 29.81 in1009.5 mb 0.00 in0.0 mm 0.00 in0.0 mm 0.00 in0.0 mm
11:30 AM 55.8°F13.2°C 25.6°F-3.6°C 31% 0.7 mph SE1.1 kmh SE 3.8 mph6.1 kmh 29.81 in1009.5 mb 0.00 in0.0 mm 0.00 in0.0 mm 0.00 in0.0 mm
11:45 AM 56.1°F13.4°C 25.9°F-3.4°C 31% 3.8 mph SE6.1 kmh SE 5.4 mph8.7 kmh 29.81 in1009.5 mb 0.00 in0.0 mm 0.00 in0.0 mm 0.00 in0.0 mm
12:00 PM 56.1°F13.4°C 25.9°F-3.4°C 31% 3.8 mph SE6.1 kmh SE 5.4 mph8.7 kmh 29.81 in1009.5 mb 0.00 in0.0 mm 0.00 in0.0 mm 0.00 in0.0 mm
12:15 PM 56.1°F13.4°C 25.9°F-3.4°C 31% 3.8 mph SE6.1 kmh SE 5.4 mph8.7 kmh 29.81 in1009.5 mb 0.00 in0.0 mm 0.00 in0.0 mm 0.00 in0.0 mm
12:30 PM 56.1°F13.4°C 25.9°F-3.4°C 31% 3.8 mph SE6.1 kmh SE 5.4 mph8.7 kmh 29.81 in1009.5 mb 0.00 in0.0 mm 0.00 in0.0 mm 0.00 in0.0 mm
12:45 PM 56.1°F13.4°C 25.9°F-3.4°C 31% 3.8 mph SE6.1 kmh SE 5.4 mph8.7 kmh 29.81 in1009.5 mb 0.00 in0.0 mm 0.00 in0.0 mm 0.00 in0.0 mm
01:00 PM 56.1°F13.4°C 25.9°F-3.4°C 31% 3.8 mph SE6.1 kmh SE 5.4 mph8.7 kmh 29.81 in1009.5 mb 0.00 in0.0 mm 0.00 in0.0 mm 0.00 in0.0 mm
01:15 PM 56.1°F13.4°C 25.9°F-3.4°C 31% 3.8 mph SE6.1 kmh SE 5.4 mph8.7 kmh 29.81 in1009.5 mb 0.00 in0.0 mm 0.00 in0.0 mm 0.00 in0.0 mm
01:30 PM 56.1°F13.4°C 25.9°F-3.4°C 31% 3.8 mph SE6.1 kmh SE 5.4 mph8.7 kmh 29.81 in1009.5 mb 0.00 in0.0 mm 0.00 in0.0 mm 0.00 in0.0 mm
01:45 PM 56.1°F13.4°C 25.9°F-3.4°C 31% 3.8 mph SE6.1 kmh SE 5.4 mph8.7 kmh 29.81 in1009.5 mb 0.00 in0.0 mm 0.00 in0.0 mm 0.00 in0.0 mm
02:00 PM 56.1°F13.4°C 25.9°F-3.4°C 31% 3.8 mph SE6.1 kmh SE 5.4 mph8.7 kmh 29.81 in1009.5 mb 0.00 in0.0 mm 0.00 in0.0 mm 0.00 in0.0 mm
02:15 PM 56.1°F13.4°C 25.9°F-3.4°C 31% 3.8 mph SE6.1 kmh SE 5.4 mph8.7 kmh 29.81 in1009.5 mb 0.00 in0.0 mm 0.00 in0.0 mm 0.00 in0.0 mm
02:30 PM 56.1°F13.4°C 25.9°F-3.4°C 31% 3.8 mph SE6.1 kmh SE 5.4 mph8.7 kmh 29.81 in1009.5 mb 0.00 in0.0 mm 0.00 in0.0 mm 0.00 in0.0 mm
02:45 PM 56.1°F13.4°C 25.9°F-3.4°C 31% 3.8 mph SE6.1 kmh SE 5.4 mph8.7 kmh 29.81 in1009.5 mb 0.00 in0.0 mm 0.00 in0.0 mm 0.00 in0.0 mm
03:00 PM 56.1°F13.4°C 25.9°F-3.4°C 31% 3.8 mph SE6.1 kmh SE 5.4 mph8.7 kmh 29.81 in1009.5 mb 0.00 in0.0 mm 0.00 in0.0 mm 0.00 in0.0 mm
03:15 PM 56.1°F13.4°C 25.9°F-3.4°C 31% 3.8 mph SE6.1 kmh SE 5.4 mph8.7 kmh 29.81 in1009.5 mb 0.00 in0.0 mm 0.00 in0.0 mm 0.00 in0.0 mm
03:30 PM 56.1°F13.4°C 25.9°F-3.4°C 31% 3.8 mph SE6.1 kmh SE 5.4 mph8.7 kmh 29.81 in1009.5 mb 0.00 in0.0 mm 0.00 in0.0 mm 0.00 in0.0 mm
03:45 PM 56.1°F13.4°C 25.9°F-3.4°C 31% 3.8 mph SE6.1 kmh SE 5.4 mph8.7 kmh 29.81 in1009.5 mb 0.00 in0.0 mm 0.00 in0.0 mm 0.00 in0.0 mm
04:00 PM 56.1°F13.4°C 25.9°F-3.4°C 31% 3.8 mph SE6.1 kmh SE 5.4 mph8.7 kmh 29.81 in1009.5 mb 0.00 in0.0 mm 0.00 in0.0 mm 0.00 in0.0 mm
04:15 PM 56.1°F13.4°C 25.9°F-3.4°C 31% 3.8 mph SE6.1 kmh SE 5.4 mph8.7 kmh 29.81 in1009.5 mb 0.00 in0.0 mm 0.00 in0.0 mm 0.00 in0.0 mm
04:30 PM 56.1°F13.4°C 25.9°F-3.4°C 31% 3.8 mph SE6.1 kmh SE 5.4 mph8.7 kmh 29.81 in1009.5 mb 0.00 in0.0 mm 0.00 in0.0 mm 0.00 in0.0 mm
04:45 PM 56.1°F13.4°C 25.9°F-3.4°C 31% 3.8 mph SE6.1 kmh SE 5.4 mph8.7 kmh 29.81 in1009.5 mb 0.00 in0.0 mm 0.00 in0.0 mm 0.00 in0.0 mm
05:00 PM 56.1°F13.4°C 25.9°F-3.4°C 31% 3.8 mph SE6.1 kmh SE 5.4 mph8.7 kmh 29.81 in1009.5 mb 0.00 in0.0 mm 0.00 in0.0 mm 0.00 in0.0 mm
05:15 PM 56.1°F13.4°C 25.9°F-3.4°C 31% 3.8 mph SE6.1 kmh SE 5.4 mph8.7 kmh 29.81 in1009.5 mb 0.00 in0.0 mm 0.00 in0.0 mm 0.00 in0.0 mm
05:30 PM 56.1°F13.4°C 25.9°F-3.4°C 31% 3.8 mph SE6.1 kmh SE 5.4 mph8.7 kmh 29.81 in1009.5 mb 0.00 in0.0 mm 0.00 in0.0 mm 0.00 in0.0 mm
05:45 PM 56.1°F13.4°C 25.9°F-3.4°C 31% 3.8 mph SE6.1 kmh SE 5.4 mph8.7 kmh 29.81 in1009.5 mb 0.00 in0.0 mm 0.00 in0.0 mm 0.00 in0.0 mm
06:00 PM 56.1°F13.4°C 25.9°F-3.4°C 31% 3.8 mph SE6.1 kmh SE 5.4 mph8.7 kmh 29.81 in1009.5 mb 0.00 in0.0 mm 0.00 in0.0 mm 0.00 in0.0 mm
06:15 PM 56.1°F13.4°C 25.9°F-3.4°C 31% 3.8 mph SE6.1 kmh SE 5.4 mph8.7 kmh 29.81 in1009.5 mb 0.00 in0.0 mm 0.00 in0.0 mm 0.00 in0.0 mm
06:30 PM 56.1°F13.4°C 25.9°F-3.4°C 31% 3.8 mph SE6.1 kmh SE 5.4 mph8.7 kmh 29.81 in1009.5 mb 0.00 in0.0 mm 0.00 in0.0 mm 0.00 in0.0 mm
06:45 PM 56.1°F13.4°C 25.9°F-3.4°C 31% 3.8 mph SE6.1 kmh SE 5.4 mph8.7 kmh 29.81 in1009.5 mb 0.00 in0.0 mm 0.00 in0.0 mm 0.00 in0.0 mm
07:00 PM 56.1°F13.4°C 25.9°F-3.4°C 31% 3.8 mph SE6.1 kmh SE 5.4 mph8.7 kmh 29.81 in1009.5 mb 0.00 in0.0 mm 0.00 in0.0 mm 0.00 in0.0 mm
07:15 PM 56.1°F13.4°C 25.9°F-3.4°C 31% 3.8 mph SE6.1 kmh SE 5.4 mph8.7 kmh 29.81 in1009.5 mb 0.00 in0.0 mm 0.00 in0.0 mm 0.00 in0.0 mm
07:30 PM 56.1°F13.4°C 25.9°F-3.4°C 31% 3.8 mph SE6.1 kmh SE 5.4 mph8.7 kmh 29.81 in1009.5 mb 0.00 in0.0 mm 0.00 in0.0 mm 0.00 in0.0 mm
07:45 PM 56.1°F13.4°C 25.9°F-3.4°C 31% 3.8 mph SE6.1 kmh SE 5.4 mph8.7 kmh 29.81 in1009.5 mb 0.00 in0.0 mm 0.00 in0.0 mm 0.00 in0.0 mm
08:00 PM 56.1°F13.4°C 25.9°F-3.4°C 31% 3.8 mph SE6.1 kmh SE 5.4 mph8.7 kmh 29.81 in1009.5 mb 0.00 in0.0 mm 0.00 in0.0 mm 0.00 in0.0 mm
08:15 PM 56.1°F13.4°C 25.9°F-3.4°C 31% 3.8 mph SE6.1 kmh SE 5.4 mph8.7 kmh 29.81 in1009.5 mb 0.00 in0.0 mm 0.00 in0.0 mm 0.00 in0.0 mm
08:30 PM 56.1°F13.4°C 25.9°F-3.4°C 31% 3.8 mph SE6.1 kmh SE 5.4 mph8.7 kmh 29.81 in1009.5 mb 0.00 in0.0 mm 0.00 in0.0 mm 0.00 in0.0 mm
08:45 PM 56.1°F13.4°C 25.9°F-3.4°C 31% 3.8 mph SE6.1 kmh SE 5.4 mph8.7 kmh 29.81 in1009.5 mb 0.00 in0.0 mm 0.00 in0.0 mm 0.00 in0.0 mm
09:00 PM 56.1°F13.4°C 25.9°F-3.4°C 31% 3.8 mph SE6.1 kmh SE 5.4 mph8.7 kmh 29.81 in1009.5 mb 0.00 in0.0 mm 0.00 in0.0 mm 0.00 in0.0 mm
09:15 PM 56.1°F13.4°C 25.9°F-3.4°C 31% 3.8 mph SE6.1 kmh SE 5.4 mph8.7 kmh 29.81 in1009.5 mb 0.00 in0.0 mm 0.00 in0.0 mm 0.00 in0.0 mm
09:30 PM 56.1°F13.4°C 25.9°F-3.4°C 31% 3.8 mph SE6.1 kmh SE 5.4 mph8.7 kmh 29.81 in1009.5 mb 0.00 in0.0 mm 0.00 in0.0 mm 0.00 in0.0 mm
09:45 PM 56.1°F13.4°C 25.9°F-3.4°C 31% 3.8 mph SE6.1 kmh SE 5.4 mph8.7 kmh 29.81 in1009.5 mb 0.00 in0.0 mm 0.00 in0.0 mm 0.00 in0.0 mm
10:00 PM 56.1°F13.4°C 25.9°F-3.4°C 31% 3.8 mph SE6.1 kmh SE 5.4 mph8.7 kmh 29.81 in1009.5 mb 0.00 in0.0 mm 0.00 in0.0 mm 0.00 in0.0 mm
10:15 PM 56.1°F13.4°C 25.9°F-3.4°C 31% 3.8 mph SE6.1 kmh SE 5.4 mph8.7 kmh 29.81 in1009.5 mb 0.00 in0.0 mm 0.00 in0.0 mm 0.00 in0.0 mm
10:30 PM 56.1°F13.4°C 25.9°F-3.4°C 31% 3.8 mph SE6.1 kmh SE 5.4 mph8.7 kmh 29.81 in1009.5 mb 0.00 in0.0 mm 0.00 in0.0 mm 0.00 in0.0 mm
10:45 PM 56.1°F13.4°C 25.9°F-3.4°C 31% 3.8 mph SE6.1 kmh SE 5.4 mph8.7 kmh 29.81 in1009.5 mb 0.00 in0.0 mm 0.00 in0.0 mm 0.00 in0.0 mm
11:00 PM 56.1°F13.4°C 25.9°F-3.4°C 31% 3.8 mph SE6.1 kmh SE 5.4 mph8.7 kmh 29.81 in1009.5 mb 0.00 in0.0 mm 0.00 in0.0 mm 0.00 in0.0 mm
11:15 PM 56.1°F13.4°C 25.9°F-3.4°C 31% 3.8 mph SE6.1 kmh SE 5.4 mph8.7 kmh 29.81 in1009.5 mb 0.00 in0.0 mm 0.00 in0.0 mm 0.00 in0.0 mm
11:30 PM 56.1°F13.4°C 25.9°F-3.4°C 31% 3.8 mph SE6.1 kmh SE 5.4 mph8.7 kmh 29.81 in1009.5 mb 0.00 in0.0 mm 0.00 in0.0 mm 0.00 in0.0 mm
11:45 PM 56.1°F13.4°C 25.9°F-3.4°C 31% 3.8 mph SE6.1 kmh SE 5.4 mph8.7 kmh 29.81 in1009.5 mb 0.00 in0.0 mm 0.00 in0.0 mm 0.00 in0.0 mm